Time;durP1;ratioP1;P1;durP2;ratioP2;P2;SDS_P1;SDS_P2;PMS_P1;PMS_P2;Temp;Humidity;BMP_temperature;BMP_pressure;BME280_temperature;BME280_humidity;BME280_pressure;Samples;Min_cycle;Max_cycle;Signal;HPM_P1;HPM_P2
2022/04/20 10:49:17;;;;;;;0.10;0.10;;;;;;;;;;5125348;27;20437;-79
2022/04/20 10:51:45;;;;;;;0.20;0.20;;;;;;;;;;5087923;28;20024;-88
2022/04/20 10:54:27;;;;;;;0.10;0.10;;;;;;;;;;5096551;28;20123;-86
2022/04/20 10:57:13;;;;;;;0.20;0.20;;;;;;;;;;5106479;28;20035;-85
2022/04/20 10:59:40;;;;;;;0.20;0.20;;;;;;;;;;5096910;28;20394;-80
2022/04/20 11:02:07;;;;;;;0.20;0.20;;;;;;;;;;5096922;28;20032;-84
2022/04/20 11:04:42;;;;;;;0.20;0.20;;;;;;;;;;5089303;28;20028;-85
2022/04/20 11:07:08;;;;;;;0.20;0.20;;;;;;;;;;5105539;28;20466;-75
2022/04/20 11:09:44;;;;;;;0.17;0.17;;;;;;;;;;5102994;28;20063;-82
2022/04/20 11:21:03;;;;;;;0.20;0.20;;;;;;;;;;5095838;28;20108;-79
2022/04/20 11:23:48;;;;;;;0.10;0.10;;;;;;;;;;5102325;28;20348;-80
2022/04/20 11:26:25;;;;;;;0.10;0.10;;;;;;;;;;5090529;28;20025;-78
2022/04/20 11:28:52;;;;;;;0.10;0.10;;;;;;;;;;5102741;28;20287;-77
2022/04/20 11:31:18;;;;;;;0.10;0.10;;;;;;;;;;5089965;28;20025;-81
2022/04/20 11:33:45;;;;;;;0.10;0.10;;;;;;;;;;5087565;28;20031;-79
2022/04/20 11:36:12;;;;;;;0.10;0.10;;;;;;;;;;5093622;28;20028;-84
2022/04/20 11:38:45;;;;;;;0.10;0.10;;;;;;;;;;5087824;28;20107;-80
2022/04/20 11:41:11;;;;;;;0.10;0.10;;;;;;;;;;5086364;28;20012;-83
2022/04/20 11:43:42;;;;;;;0.10;0.10;;;;;;;;;;5107406;28;20548;-83
2022/04/20 11:46:08;;;;;;;0.10;0.10;;;;;;;;;;5107546;28;20096;-81
2022/04/20 11:48:38;;;;;;;0.10;0.10;;;;;;;;;;5087755;28;20060;-84
2022/04/20 11:51:07;;;;;;;0.10;0.10;;;;;;;;;;5087464;28;20025;-81
2022/04/20 11:53:33;;;;;;;0.10;0.10;;;;;;;;;;5103232;28;20510;-80
2022/04/20 11:56:01;;;;;;;0.10;0.10;;;;;;;;;;5108017;28;20016;-80
2022/04/20 11:58:27;;;;;;;0.10;0.10;;;;;;;;;;5087478;28;20032;-81
2022/04/20 12:01:03;;;;;;;0.10;0.10;;;;;;;;;;5071882;28;20017;-81
2022/04/20 12:03:33;;;;;;;0.10;0.10;;;;;;;;;;5071961;28;20036;-80
2022/04/20 12:06:03;;;;;;;0.10;0.10;;;;;;;;;;5073004;28;20078;-79
2022/04/20 12:08:30;;;;;;;0.20;0.20;;;;;;;;;;5076132;28;20477;-78
2022/04/20 12:10:56;;;;;;;0.20;0.20;;;;;;;;;;5068496;28;20020;-79
2022/04/20 12:13:25;;;;;;;0.10;0.10;;;;;;;;;;5072174;28;20431;-77
2022/04/20 12:16:02;;;;;;;0.10;0.10;;;;;;;;;;5072815;28;20027;-77
2022/04/20 12:18:29;;;;;;;0.10;0.10;;;;;;;;;;5071493;28;20082;-77
2022/04/20 12:20:56;;;;;;;0.10;0.10;;;;;;;;;;5075411;28;20756;-72
2022/04/20 12:23:22;;;;;;;0.10;0.10;;;;;;;;;;5069678;28;20023;-77
2022/04/20 12:25:54;;;;;;;0.10;0.10;;;;;;;;;;5071740;28;20025;-78
2022/04/20 12:28:35;;;;;;;0.10;0.10;;;;;;;;;;5072296;28;20086;-78
2022/04/20 12:31:02;;;;;;;0.10;0.10;;;;;;;;;;5070908;28;20090;-73
2022/04/20 12:33:28;;;;;;;0.10;0.10;;;;;;;;;;5073007;28;20551;-79
2022/04/20 12:36:11;;;;;;;0.20;0.20;;;;;;;;;;5072064;28;20029;-82
2022/04/20 12:38:50;;;;;;;0.10;0.10;;;;;;;;;;5071952;28;20051;-79
2022/04/20 12:41:35;;;;;;;0.10;0.10;;;;;;;;;;5071915;28;20028;-81
2022/04/20 12:44:03;;;;;;;0.10;0.10;;;;;;;;;;5071344;28;20120;-81
2022/04/20 12:46:43;;;;;;;0.10;0.10;;;;;;;;;;5073056;28;20029;-81
2022/04/20 12:49:09;;;;;;;0.20;0.20;;;;;;;;;;5071562;28;20051;-82
2022/04/20 12:51:35;;;;;;;0.10;0.10;;;;;;;;;;5072594;28;20086;-81
2022/04/20 12:54:01;;;;;;;0.10;0.10;;;;;;;;;;5071647;28;20413;-82
2022/04/20 13:02:03;;;;;;;0.10;0.10;;;;;;;;;;5071892;28;20035;-78
2022/04/20 13:04:30;;;;;;;0.10;0.10;;;;;;;;;;5091002;28;20024;-83
2022/04/20 13:06:56;;;;;;;0.10;0.10;;;;;;;;;;5074007;28;20492;-79
2022/04/20 13:09:22;;;;;;;0.10;0.10;;;;;;;;;;5086727;28;20075;-78
2022/04/20 13:11:49;;;;;;;0.10;0.10;;;;;;;;;;5089951;28;20012;-84
2022/04/20 13:14:15;;;;;;;0.10;0.10;;;;;;;;;;5091364;28;20499;-81
2022/04/20 13:16:41;;;;;;;0.10;0.10;;;;;;;;;;5092652;28;20564;-81
2022/04/20 13:19:07;;;;;;;0.10;0.10;;;;;;;;;;5088717;28;20475;-84
2022/04/20 13:21:33;;;;;;;0.10;0.10;;;;;;;;;;5072253;28;20024;-82
2022/04/20 13:23:59;;;;;;;0.10;0.10;;;;;;;;;;5092367;28;20028;-82
2022/04/20 13:29:12;;;;;;;0.10;0.10;;;;;;;;;;5091419;28;20414;-83
2022/04/20 13:31:38;;;;;;;0.10;0.10;;;;;;;;;;5070762;28;20081;-82
2022/04/20 13:34:04;;;;;;;0.10;0.10;;;;;;;;;;5090691;28;20459;-82
2022/04/20 13:36:30;;;;;;;0.10;0.10;;;;;;;;;;5071013;28;20025;-82
2022/04/20 13:38:57;;;;;;;0.10;0.10;;;;;;;;;;5073514;28;20036;-81
2022/04/20 13:41:23;;;;;;;0.10;0.10;;;;;;;;;;5080119;28;20063;-81
2022/04/20 13:43:49;;;;;;;0.10;0.10;;;;;;;;;;5091192;28;20544;-84
2022/04/20 13:46:15;;;;;;;0.10;0.10;;;;;;;;;;5091079;28;20094;-80
2022/04/20 13:48:41;;;;;;;0.10;0.10;;;;;;;;;;5077689;28;20040;-79
2022/04/20 13:51:07;;;;;;;0.10;0.10;;;;;;;;;;5078715;28;20032;-78
2022/04/20 13:53:33;;;;;;;0.10;0.10;;;;;;;;;;5091069;28;20035;-77
2022/04/20 13:55:59;;;;;;;0.10;0.10;;;;;;;;;;5092047;28;20028;-79
2022/04/20 13:58:25;;;;;;;0.10;0.10;;;;;;;;;;5091660;28;20036;-77
2022/04/20 14:00:51;;;;;;;0.10;0.10;;;;;;;;;;5092186;28;20031;-78
2022/04/20 14:03:17;;;;;;;0.10;0.10;;;;;;;;;;5091801;28;20024;-78
2022/04/20 14:05:43;;;;;;;0.10;0.10;;;;;;;;;;5091694;28;20077;-78
2022/04/20 14:08:09;;;;;;;0.10;0.10;;;;;;;;;;5091750;28;20024;-78
2022/04/20 14:10:37;;;;;;;0.10;0.10;;;;;;;;;;5091497;28;20027;-78
2022/04/20 14:13:04;;;;;;;0.10;0.10;;;;;;;;;;5091750;28;20084;-78
2022/04/20 14:15:30;;;;;;;0.10;0.10;;;;;;;;;;5087969;28;20020;-79
2022/04/20 14:17:56;;;;;;;0.10;0.10;;;;;;;;;;5072241;28;20040;-78
2022/04/20 14:20:22;;;;;;;0.10;0.10;;;;;;;;;;5071606;28;20025;-79
2022/04/20 14:22:49;;;;;;;0.10;0.10;;;;;;;;;;5071215;28;20112;-76
2022/04/20 14:33:28;;;;;;;0.10;0.10;;;;;;;;;;5052237;28;20040;-77
2022/04/20 14:35:55;;;;;;;0.10;0.10;;;;;;;;;;5082545;28;20018;-77
2022/04/20 14:38:21;;;;;;;0.10;0.10;;;;;;;;;;5077280;28;20051;-74
2022/04/20 14:40:47;;;;;;;0.10;0.10;;;;;;;;;;5070702;28;20047;-75
2022/04/20 14:43:13;;;;;;;0.10;0.10;;;;;;;;;;5071095;28;20034;-75
2022/04/20 14:45:39;;;;;;;0.10;0.10;;;;;;;;;;5070942;28;20063;-73
2022/04/20 14:48:05;;;;;;;0.10;0.10;;;;;;;;;;5071077;28;20045;-74
2022/04/20 14:50:31;;;;;;;0.10;0.10;;;;;;;;;;5071015;28;20454;-74
2022/04/20 14:52:58;;;;;;;0.10;0.10;;;;;;;;;;5071092;28;20111;-73
2022/04/20 14:55:24;;;;;;;0.10;0.10;;;;;;;;;;5070193;28;20069;-76
2022/04/20 14:57:51;;;;;;;0.10;0.10;;;;;;;;;;5070960;28;20025;-76
2022/04/20 15:00:17;;;;;;;0.10;0.10;;;;;;;;;;5070972;28;20020;-75
2022/04/20 15:02:44;;;;;;;0.10;0.10;;;;;;;;;;5070783;28;20032;-75
2022/04/20 15:05:09;;;;;;;0.10;0.10;;;;;;;;;;5070870;28;20032;-73
2022/04/20 15:07:36;;;;;;;0.10;0.10;;;;;;;;;;5070609;28;20350;-74
2022/04/20 15:10:02;;;;;;;0.10;0.10;;;;;;;;;;5070875;28;20064;-78
2022/04/20 15:12:29;;;;;;;0.10;0.10;;;;;;;;;;5070678;28;20082;-75
2022/04/20 15:14:57;;;;;;;0.10;0.10;;;;;;;;;;5071119;28;20112;-76
2022/04/20 15:17:23;;;;;;;0.10;0.10;;;;;;;;;;5069706;28;20032;-77
2022/04/20 15:19:52;;;;;;;0.10;0.10;;;;;;;;;;5069262;28;20027;-76
2022/04/20 15:22:18;;;;;;;0.10;0.10;;;;;;;;;;5069584;28;20029;-77
2022/04/20 15:24:44;;;;;;;0.10;0.10;;;;;;;;;;5069399;28;20025;-76
2022/04/20 15:27:10;;;;;;;0.32;0.32;;;;;;;;;;5070763;28;20033;-78
2022/04/20 15:29:36;;;;;;;0.10;0.10;;;;;;;;;;5070497;28;20476;-76
2022/04/20 15:32:02;;;;;;;0.10;0.10;;;;;;;;;;5070679;28;20119;-81
2022/04/20 15:34:28;;;;;;;0.63;0.60;;;;;;;;;;5071651;28;20020;-80
2022/04/20 15:36:54;;;;;;;0.10;0.10;;;;;;;;;;5074703;28;20028;-79
2022/04/20 15:39:20;;;;;;;0.08;0.08;;;;;;;;;;5074686;28;20035;-81
2022/04/20 15:41:47;;;;;;;0.10;0.10;;;;;;;;;;5074177;28;20028;-80
2022/04/20 15:44:13;;;;;;;0.10;0.10;;;;;;;;;;5074326;28;20031;-78
2022/04/20 15:46:38;;;;;;;0.10;0.10;;;;;;;;;;5073809;28;20024;-78
2022/04/20 15:49:04;;;;;;;0.10;0.10;;;;;;;;;;5073956;28;20039;-77
2022/04/20 15:51:32;;;;;;;0.10;0.10;;;;;;;;;;5073919;28;20036;-76
2022/04/20 15:53:58;;;;;;;0.10;0.10;;;;;;;;;;5074087;28;20090;-78
2022/04/20 16:01:59;;;;;;;0.10;0.10;;;;;;;;;;5074528;28;20113;-79
2022/04/20 16:04:36;;;;;;;0.10;0.10;;;;;;;;;;5073670;28;20495;-76
2022/04/20 16:07:06;;;;;;;0.10;0.10;;;;;;;;;;5073776;28;20047;-78
2022/04/20 16:09:32;;;;;;;0.38;0.38;;;;;;;;;;5073099;28;20111;-78
2022/04/20 16:11:59;;;;;;;0.10;0.10;;;;;;;;;;5073262;28;20108;-78
2022/04/20 16:17:28;;;;;;;0.10;0.10;;;;;;;;;;5073526;28;20043;-78
2022/04/20 16:19:54;;;;;;;0.10;0.10;;;;;;;;;;5072680;28;20439;-78
2022/04/20 16:22:21;;;;;;;0.10;0.10;;;;;;;;;;5073832;28;20020;-76
2022/04/20 16:24:47;;;;;;;0.10;0.10;;;;;;;;;;5073102;28;20115;-82
2022/04/20 16:27:13;;;;;;;0.10;0.10;;;;;;;;;;5073570;28;20075;-81
2022/04/20 16:29:39;;;;;;;0.10;0.10;;;;;;;;;;5073373;28;20428;-80
2022/04/20 16:32:07;;;;;;;0.10;0.10;;;;;;;;;;5073429;28;20072;-79
2022/04/20 16:34:34;;;;;;;0.10;0.10;;;;;;;;;;5072724;28;20024;-77
2022/04/20 16:37:01;;;;;;;0.10;0.10;;;;;;;;;;5070308;28;20496;-79
2022/04/20 16:39:27;;;;;;;0.10;0.10;;;;;;;;;;5072663;28;20115;-79
2022/04/20 16:41:53;;;;;;;0.10;0.10;;;;;;;;;;5071734;28;20074;-80
2022/04/20 16:44:19;;;;;;;0.10;0.10;;;;;;;;;;5073199;28;20465;-80
2022/04/20 16:46:45;;;;;;;0.10;0.10;;;;;;;;;;5075125;28;20036;-80
2022/04/20 16:49:12;;;;;;;0.10;0.10;;;;;;;;;;5073082;28;20043;-81
2022/04/20 16:51:39;;;;;;;0.10;0.10;;;;;;;;;;5072302;28;20468;-80
2022/04/20 16:54:05;;;;;;;0.10;0.10;;;;;;;;;;5073195;28;20025;-78
2022/04/20 16:56:31;;;;;;;0.10;0.10;;;;;;;;;;5071562;28;20025;-78
2022/04/20 16:58:57;;;;;;;0.10;0.10;;;;;;;;;;5071671;28;20066;-79
2022/04/20 17:01:24;;;;;;;0.10;0.10;;;;;;;;;;5073123;28;20552;-76
2022/04/20 17:03:50;;;;;;;0.10;0.10;;;;;;;;;;5073164;28;20028;-79
2022/04/20 17:06:16;;;;;;;0.10;0.10;;;;;;;;;;5072725;28;20012;-80
2022/04/20 17:08:42;;;;;;;0.10;0.10;;;;;;;;;;5071135;28;20043;-76
2022/04/20 17:11:08;;;;;;;0.10;0.10;;;;;;;;;;5071412;28;20091;-77
2022/04/20 17:13:35;;;;;;;0.10;0.10;;;;;;;;;;5070969;28;20040;-76
2022/04/20 17:16:02;;;;;;;0.10;0.10;;;;;;;;;;5072590;28;20073;-80
2022/04/20 17:18:29;;;;;;;0.10;0.10;;;;;;;;;;5072153;28;20036;-76
2022/04/20 17:26:39;;;;;;;0.10;0.10;;;;;;;;;;5072806;28;20035;-75
2022/04/20 17:29:09;;;;;;;0.20;0.20;;;;;;;;;;5072243;28;20028;-77
2022/04/20 17:31:37;;;;;;;0.10;0.10;;;;;;;;;;5072116;28;20477;-76
2022/04/20 17:34:03;;;;;;;0.10;0.10;;;;;;;;;;5072170;28;20066;-76
2022/04/20 17:36:47;;;;;;;0.10;0.10;;;;;;;;;;5071912;28;20013;-79
2022/04/20 17:39:25;;;;;;;0.10;0.10;;;;;;;;;;5072057;28;20420;-80
2022/04/20 17:41:52;;;;;;;0.10;0.10;;;;;;;;;;5072363;28;20396;-81
2022/04/20 17:44:19;;;;;;;0.10;0.10;;;;;;;;;;5070745;28;20082;-79
2022/04/20 17:46:45;;;;;;;0.10;0.10;;;;;;;;;;5071688;28;20036;-80
2022/04/20 17:49:11;;;;;;;0.10;0.10;;;;;;;;;;5071926;28;20115;-80
2022/04/20 17:51:38;;;;;;;0.10;0.10;;;;;;;;;;5071610;28;20025;-79
2022/04/20 17:54:04;;;;;;;0.10;0.10;;;;;;;;;;5071722;28;20028;-79
2022/04/20 17:56:31;;;;;;;0.10;0.10;;;;;;;;;;5071220;28;20025;-79
2022/04/20 17:58:57;;;;;;;0.15;0.15;;;;;;;;;;5071601;28;20040;-78
2022/04/20 18:01:24;;;;;;;0.10;0.10;;;;;;;;;;5072092;28;20025;-79
2022/04/20 18:03:50;;;;;;;0.10;0.10;;;;;;;;;;5071916;28;20024;-77
2022/04/20 18:06:17;;;;;;;0.10;0.10;;;;;;;;;;5071614;28;20028;-78
2022/04/20 18:08:43;;;;;;;0.10;0.10;;;;;;;;;;5071412;28;20046;-77
2022/04/20 18:11:09;;;;;;;0.10;0.10;;;;;;;;;;5072173;28;20021;-78
2022/04/20 18:13:35;;;;;;;0.10;0.10;;;;;;;;;;5069810;28;20115;-78
2022/04/20 18:16:01;;;;;;;0.10;0.10;;;;;;;;;;5071685;28;20432;-77
2022/04/20 18:18:27;;;;;;;0.10;0.10;;;;;;;;;;5069765;28;20036;-78
2022/04/20 18:20:53;;;;;;;0.10;0.10;;;;;;;;;;5071683;28;20388;-78
2022/04/20 18:23:19;;;;;;;0.10;0.10;;;;;;;;;;5071393;28;20048;-77
2022/04/20 18:25:46;;;;;;;0.20;0.20;;;;;;;;;;5069764;28;20035;-76
2022/04/20 18:28:12;;;;;;;0.10;0.10;;;;;;;;;;5071247;28;20534;-77
2022/04/20 18:30:39;;;;;;;0.10;0.10;;;;;;;;;;5071028;28;20029;-78
2022/04/20 18:33:07;;;;;;;0.10;0.10;;;;;;;;;;5071913;28;20023;-77
2022/04/20 18:35:33;;;;;;;0.10;0.10;;;;;;;;;;5071067;28;20029;-77
2022/04/20 18:37:59;;;;;;;0.10;0.10;;;;;;;;;;5071235;28;20040;-77
2022/04/20 18:40:25;;;;;;;0.10;0.10;;;;;;;;;;5071189;28;20408;-73
2022/04/20 18:42:52;;;;;;;0.10;0.10;;;;;;;;;;5071582;28;20086;-76
2022/04/20 18:45:19;;;;;;;0.10;0.10;;;;;;;;;;5071136;28;20045;-77
2022/04/20 18:47:45;;;;;;;0.10;0.10;;;;;;;;;;5070720;28;20039;-76
2022/04/20 18:50:11;;;;;;;0.10;0.10;;;;;;;;;;5071109;28;20036;-77
2022/04/20 18:57:46;;;;;;;0.10;0.10;;;;;;;;;;5071120;28;20016;-77
2022/04/20 18:58:09;;;;;;;0.10;0.10;;;;;;;;;;5071010;28;20421;-77
2022/04/20 19:00:35;;;;;;;0.10;0.10;;;;;;;;;;5069451;28;20020;-78
2022/04/20 19:03:01;;;;;;;0.10;0.10;;;;;;;;;;5071013;28;20039;-76
2022/04/20 19:05:27;;;;;;;0.10;0.10;;;;;;;;;;5071035;28;20028;-78
2022/04/20 19:07:53;;;;;;;0.10;0.10;;;;;;;;;;5074504;28;20021;-77
2022/04/20 19:10:19;;;;;;;0.10;0.10;;;;;;;;;;5073693;28;20551;-79
2022/04/20 19:12:45;;;;;;;0.10;0.10;;;;;;;;;;5074618;28;20442;-77
2022/04/20 19:15:11;;;;;;;0.10;0.10;;;;;;;;;;5074845;28;20093;-77
2022/04/20 19:17:40;;;;;;;0.10;0.10;;;;;;;;;;5074460;28;20033;-77
2022/04/20 19:20:12;;;;;;;0.10;0.10;;;;;;;;;;5074847;28;20074;-78
2022/04/20 19:22:39;;;;;;;0.10;0.10;;;;;;;;;;5073066;28;20027;-77
2022/04/20 19:25:06;;;;;;;0.10;0.10;;;;;;;;;;5074736;28;20025;-77
2022/04/20 19:27:32;;;;;;;0.10;0.10;;;;;;;;;;5074349;28;20112;-77
2022/04/20 19:29:58;;;;;;;0.10;0.10;;;;;;;;;;5074773;28;20059;-77
2022/04/20 19:32:25;;;;;;;0.10;0.10;;;;;;;;;;5075061;28;20052;-76
2022/04/20 19:34:51;;;;;;;0.10;0.10;;;;;;;;;;5074697;28;20021;-77
2022/04/20 19:37:17;;;;;;;0.10;0.10;;;;;;;;;;5074372;28;20111;-77
2022/04/20 19:39:43;;;;;;;0.10;0.10;;;;;;;;;;5074115;28;20074;-77
2022/04/20 19:42:10;;;;;;;0.10;0.10;;;;;;;;;;5074395;28;20016;-76
2022/04/20 19:44:37;;;;;;;0.00;0.00;;;;;;;;;;5072700;28;20115;-77
2022/04/20 19:47:03;;;;;;;0.10;0.10;;;;;;;;;;5072822;28;20025;-76
2022/04/20 19:49:30;;;;;;;0.10;0.10;;;;;;;;;;5072737;28;20190;-78
2022/04/20 19:51:56;;;;;;;0.10;0.10;;;;;;;;;;5074166;28;20031;-76
2022/04/20 19:54:22;;;;;;;0.10;0.10;;;;;;;;;;5074329;28;20044;-77
2022/04/20 19:56:48;;;;;;;0.10;0.10;;;;;;;;;;5073811;28;20028;-77
2022/04/20 19:59:16;;;;;;;0.10;0.10;;;;;;;;;;5073906;28;20028;-76
2022/04/20 20:01:43;;;;;;;0.10;0.10;;;;;;;;;;5072625;28;20020;-78
2022/04/20 20:04:09;;;;;;;0.10;0.10;;;;;;;;;;5073957;28;20048;-77
2022/04/20 20:06:35;;;;;;;0.10;0.10;;;;;;;;;;5072489;28;20056;-77
2022/04/20 20:09:02;;;;;;;0.10;0.10;;;;;;;;;;5073802;28;20023;-76
2022/04/20 20:11:29;;;;;;;0.10;0.10;;;;;;;;;;5073484;28;20029;-77
2022/04/20 20:13:56;;;;;;;0.10;0.10;;;;;;;;;;5072429;28;20021;-77
2022/04/20 20:16:25;;;;;;;0.10;0.10;;;;;;;;;;5074298;28;20029;-78
2022/04/20 20:18:52;;;;;;;0.10;0.10;;;;;;;;;;5074618;28;20114;-77
2022/04/20 20:21:18;;;;;;;0.10;0.10;;;;;;;;;;5072258;28;20035;-77
2022/04/20 20:31:59;;;;;;;0.10;0.10;;;;;;;;;;5073514;28;20463;-80
2022/04/20 20:34:26;;;;;;;0.10;0.10;;;;;;;;;;5073072;28;20051;-78
2022/04/20 20:36:53;;;;;;;0.10;0.10;;;;;;;;;;5073677;28;20029;-78
2022/04/20 20:39:20;;;;;;;0.10;0.10;;;;;;;;;;5073275;28;20044;-79
2022/04/20 20:41:48;;;;;;;0.10;0.10;;;;;;;;;;5073004;28;20032;-78
2022/04/20 20:44:14;;;;;;;0.10;0.10;;;;;;;;;;5073161;28;20020;-76
2022/04/20 20:46:40;;;;;;;0.10;0.10;;;;;;;;;;5071680;28;20029;-76
2022/04/20 20:51:53;;;;;;;0.10;0.10;;;;;;;;;;5073468;28;20055;-77
2022/04/20 20:54:19;;;;;;;0.10;0.10;;;;;;;;;;5073129;28;20086;-78
2022/04/20 20:56:45;;;;;;;1.30;1.30;;;;;;;;;;5072751;28;20025;-78
2022/04/20 20:59:12;;;;;;;0.10;0.10;;;;;;;;;;5072823;28;20133;-76
2022/04/20 21:01:42;;;;;;;0.10;0.10;;;;;;;;;;5072495;28;20442;-78
2022/04/20 21:04:09;;;;;;;0.10;0.10;;;;;;;;;;5072902;28;20020;-77
2022/04/20 21:06:36;;;;;;;0.10;0.10;;;;;;;;;;5072561;28;20099;-77
2022/04/20 21:09:03;;;;;;;0.10;0.10;;;;;;;;;;5072669;28;20388;-77
2022/04/20 21:11:30;;;;;;;0.10;0.10;;;;;;;;;;5071228;28;20028;-76
2022/04/20 21:13:56;;;;;;;0.10;0.10;;;;;;;;;;5072506;28;20107;-78
2022/04/20 21:16:23;;;;;;;0.13;0.13;;;;;;;;;;5072863;28;20104;-77
2022/04/20 21:18:49;;;;;;;0.10;0.10;;;;;;;;;;5072212;28;20036;-78
2022/04/20 21:21:15;;;;;;;0.20;0.20;;;;;;;;;;5071368;28;20028;-79
2022/04/20 21:23:42;;;;;;;0.10;0.10;;;;;;;;;;5072173;28;20035;-78
2022/04/20 21:26:08;;;;;;;0.10;0.10;;;;;;;;;;5072403;28;20073;-78
2022/04/20 21:28:34;;;;;;;0.10;0.10;;;;;;;;;;5071839;28;20482;-78
2022/04/20 21:31:00;;;;;;;0.10;0.10;;;;;;;;;;5072132;28;20021;-77
2022/04/20 21:33:26;;;;;;;0.20;0.20;;;;;;;;;;5071221;28;20047;-78
2022/04/20 21:35:52;;;;;;;0.10;0.10;;;;;;;;;;5072646;28;20028;-77
2022/04/20 21:38:18;;;;;;;0.10;0.10;;;;;;;;;;5072058;28;20032;-77
2022/04/20 21:40:57;;;;;;;0.10;0.10;;;;;;;;;;5071919;28;20024;-77
2022/04/20 21:43:27;;;;;;;0.10;0.10;;;;;;;;;;5072470;28;20036;-78
2022/04/20 21:45:54;;;;;;;0.10;0.10;;;;;;;;;;5070999;28;20028;-78
2022/04/20 21:48:20;;;;;;;0.10;0.10;;;;;;;;;;5071790;28;20492;-79
2022/04/20 21:50:46;;;;;;;0.10;0.10;;;;;;;;;;5071690;28;20433;-78
2022/04/20 21:53:12;;;;;;;0.13;0.13;;;;;;;;;;5072142;28;20396;-77
2022/04/20 21:55:42;;;;;;;0.10;0.10;;;;;;;;;;5070309;28;20029;-77
2022/04/20 21:58:08;;;;;;;0.10;0.10;;;;;;;;;;5071652;28;20086;-76
2022/04/20 22:00:47;;;;;;;0.10;0.10;;;;;;;;;;5071494;28;20479;-78
2022/04/20 22:09:06;;;;;;;0.10;0.10;;;;;;;;;;5071503;28;20054;-77
2022/04/20 22:14:19;;;;;;;0.10;0.10;;;;;;;;;;5071691;28;20042;-77
2022/04/20 22:16:45;;;;;;;0.10;0.10;;;;;;;;;;5071227;28;20028;-78
2022/04/20 22:19:12;;;;;;;0.10;0.10;;;;;;;;;;5070028;28;20042;-77
2022/04/20 22:21:38;;;;;;;0.10;0.10;;;;;;;;;;5071166;28;20044;-78
2022/04/20 22:24:05;;;;;;;0.13;0.13;;;;;;;;;;5071341;28;20471;-76
2022/04/20 22:26:31;;;;;;;0.10;0.10;;;;;;;;;;5071173;28;20017;-78
2022/04/20 22:28:57;;;;;;;0.03;0.03;;;;;;;;;;5070173;28;20123;-78
2022/04/20 22:31:23;;;;;;;0.10;0.10;;;;;;;;;;5071605;28;20059;-78
2022/04/20 22:33:49;;;;;;;0.10;0.10;;;;;;;;;;5071005;28;20028;-78
2022/04/20 22:36:15;;;;;;;0.10;0.10;;;;;;;;;;5071282;28;20031;-74
2022/04/20 22:38:41;;;;;;;0.10;0.10;;;;;;;;;;5069663;28;20128;-77
2022/04/20 22:41:08;;;;;;;0.10;0.10;;;;;;;;;;5071182;28;20024;-75
2022/04/20 22:43:34;;;;;;;0.10;0.10;;;;;;;;;;5069412;28;20036;-76
2022/04/20 22:46:03;;;;;;;0.10;0.10;;;;;;;;;;5071234;28;20024;-77
2022/04/20 22:48:29;;;;;;;0.10;0.10;;;;;;;;;;5070748;28;20036;-76
2022/04/20 22:50:55;;;;;;;0.17;0.17;;;;;;;;;;5071394;28;20025;-72
2022/04/20 22:53:22;;;;;;;0.13;0.13;;;;;;;;;;5071395;28;20028;-72
2022/04/20 22:55:48;;;;;;;0.20;0.20;;;;;;;;;;5070925;28;20048;-72
2022/04/20 22:58:14;;;;;;;0.10;0.10;;;;;;;;;;5071022;28;20102;-72
2022/04/20 23:00:40;;;;;;;0.10;0.10;;;;;;;;;;5069528;28;20090;-71
2022/04/20 23:03:06;;;;;;;0.10;0.10;;;;;;;;;;5071060;28;20035;-72
2022/04/20 23:05:32;;;;;;;0.10;0.10;;;;;;;;;;5070690;28;20020;-72
2022/04/20 23:07:58;;;;;;;0.10;0.10;;;;;;;;;;5069706;28;20029;-71
2022/04/20 23:10:25;;;;;;;0.10;0.10;;;;;;;;;;5071339;28;20491;-73
2022/04/20 23:12:51;;;;;;;0.10;0.10;;;;;;;;;;5069802;28;20051;-72
2022/04/20 23:15:17;;;;;;;0.10;0.10;;;;;;;;;;5070904;28;20031;-71
2022/04/20 23:17:43;;;;;;;0.03;0.03;;;;;;;;;;5070550;28;20032;-73
2022/04/20 23:20:09;;;;;;;0.10;0.10;;;;;;;;;;5070858;28;20458;-72
2022/04/20 23:22:35;;;;;;;0.10;0.10;;;;;;;;;;5070588;28;20452;-72
2022/04/20 23:30:32;;;;;;;0.10;0.10;;;;;;;;;;5070532;28;20535;-72
2022/04/20 23:32:58;;;;;;;0.10;0.10;;;;;;;;;;5070730;28;20024;-76
2022/04/20 23:35:27;;;;;;;0.13;0.13;;;;;;;;;;5071005;28;20028;-76
2022/04/20 23:37:53;;;;;;;0.10;0.10;;;;;;;;;;5070795;28;20118;-80
2022/04/20 23:40:19;;;;;;;0.10;0.10;;;;;;;;;;5070773;28;20026;-77
2022/04/20 23:42:46;;;;;;;0.10;0.10;;;;;;;;;;5070390;28;20484;-72
2022/04/20 23:45:12;;;;;;;0.10;0.10;;;;;;;;;;5069340;28;20055;-72
2022/04/20 23:47:38;;;;;;;0.10;0.10;;;;;;;;;;5070224;28;20102;-72
2022/04/20 23:50:24;;;;;;;0.10;0.10;;;;;;;;;;5070544;28;20025;-73
2022/04/20 23:52:51;;;;;;;0.10;0.10;;;;;;;;;;5070852;28;20020;-71
2022/04/20 23:55:17;;;;;;;0.10;0.10;;;;;;;;;;5070269;28;20040;-72
2022/04/20 23:57:43;;;;;;;0.10;0.10;;;;;;;;;;5073836;28;20453;-78
